Time;durP1;ratioP1;P1;durP2;ratioP2;P2;SDS_P1;SDS_P2;PMS_P1;PMS_P2;Temp;Humidity;BMP_temperature;BMP_pressure;BME280_temperature;BME280_humidity;BME280_pressure;Samples;Min_cycle;Max_cycle;Signal;HPM_P1;HPM_P2
2021/06/23 00:00:25;;;;;;;13.13;6.00;;;14.10;99.90;;;;;;4991111;28;20200;-89
2021/06/23 00:02:51;;;;;;;17.73;5.80;;;14.20;99.90;;;;;;4994248;28;20211;-88
2021/06/23 00:05:17;;;;;;;16.47;6.17;;;14.30;99.90;;;;;;4972313;28;20181;-87
2021/06/23 00:07:44;;;;;;;15.90;6.00;;;14.30;99.90;;;;;;4979722;28;20180;-88
2021/06/23 00:10:12;;;;;;;21.50;5.93;;;14.20;99.90;;;;;;4978655;28;20192;-90
2021/06/23 00:12:38;;;;;;;17.63;6.47;;;14.20;99.90;;;;;;4977102;28;20209;-89
2021/06/23 00:15:04;;;;;;;13.57;5.90;;;14.20;99.90;;;;;;4976250;28;20289;-87
2021/06/23 00:17:30;;;;;;;16.57;6.17;;;14.10;99.90;;;;;;4976546;28;20183;-87
2021/06/23 00:19:56;;;;;;;13.73;6.07;;;14.10;99.90;;;;;;4993268;28;20224;-87
2021/06/23 00:22:22;;;;;;;16.67;6.40;;;14.00;99.90;;;;;;4976615;28;20211;-88
2021/06/23 00:24:48;;;;;;;17.97;6.60;;;14.00;99.90;;;;;;4991981;28;20267;-87
2021/06/23 00:27:14;;;;;;;19.63;6.77;;;14.00;99.90;;;;;;4991746;28;20266;-88
2021/06/23 00:29:40;;;;;;;17.20;6.83;;;14.10;99.90;;;;;;4974665;28;20203;-88
2021/06/23 00:32:11;;;;;;;23.37;6.43;;;14.00;99.90;;;;;;4976661;28;20271;-86
2021/06/23 00:34:37;;;;;;;17.50;6.93;;;14.10;99.90;;;;;;4975677;28;20271;-88
2021/06/23 00:37:03;;;;;;;16.00;7.10;;;14.10;99.90;;;;;;4976275;28;20248;-87
2021/06/23 00:39:29;;;;;;;18.33;7.47;;;14.20;99.90;;;;;;4975966;28;20188;-88
2021/06/23 00:41:56;;;;;;;16.63;7.30;;;14.20;99.90;;;;;;4977887;28;20552;-86
2021/06/23 00:44:22;;;;;;;18.20;8.10;;;14.20;99.90;;;;;;4973040;28;20235;-86
2021/06/23 00:46:48;;;;;;;16.33;8.30;;;14.20;99.90;;;;;;4975026;28;20189;-88
2021/06/23 00:49:14;;;;;;;20.07;7.70;;;14.10;99.90;;;;;;4993135;28;20219;-87
2021/06/23 00:52:01;;;;;;;15.17;7.93;;;14.10;99.90;;;;;;4992698;28;20195;-88
2021/06/23 00:54:50;;;;;;;18.47;7.57;;;14.10;99.90;;;;;;4976504;28;20184;-87
2021/06/23 00:57:20;;;;;;;18.70;8.27;;;14.20;99.90;;;;;;4974936;28;20675;-88
2021/06/23 00:59:51;;;;;;;14.70;7.23;;;14.10;99.90;;;;;;5008609;28;20185;-86
2021/06/23 01:02:18;;;;;;;15.57;7.07;;;14.20;99.90;;;;;;4973782;28;20203;-91
2021/06/23 01:04:46;;;;;;;16.03;6.53;;;14.10;99.90;;;;;;4973943;28;20656;-86
2021/06/23 01:07:13;;;;;;;14.70;5.87;;;14.20;99.90;;;;;;4975713;28;20200;-87
2021/06/23 01:09:39;;;;;;;17.57;6.27;;;14.10;99.90;;;;;;4990216;28;20269;-89
2021/06/23 01:12:20;;;;;;;14.23;5.47;;;14.20;99.90;;;;;;4990179;28;20296;-89
2021/06/23 01:14:48;;;;;;;14.53;5.50;;;14.00;99.90;;;;;;4991971;28;20193;-88
2021/06/23 01:17:14;;;;;;;19.37;6.03;;;14.00;99.90;;;;;;4976922;28;20182;-87
2021/06/23 01:19:45;;;;;;;12.83;5.47;;;14.10;99.90;;;;;;4973836;28;20189;-89
2021/06/23 01:22:16;;;;;;;15.27;5.10;;;14.10;99.90;;;;;;4975544;28;20570;-88
2021/06/23 01:24:43;;;;;;;17.83;5.20;;;14.10;99.90;;;;;;4988226;28;20199;-87
2021/06/23 01:27:11;;;;;;;12.73;5.00;;;14.10;99.90;;;;;;4974857;28;20227;-89
2021/06/23 01:29:38;;;;;;;15.73;5.43;;;14.10;99.90;;;;;;4976661;28;20185;-89
2021/06/23 01:32:20;;;;;;;15.63;5.90;;;14.10;99.90;;;;;;4988727;28;20186;-88
2021/06/23 01:34:46;;;;;;;15.30;5.60;;;14.20;99.90;;;;;;4990097;28;20189;-88
2021/06/23 01:37:12;;;;;;;15.10;5.77;;;14.10;99.90;;;;;;4975114;28;20721;-89
2021/06/23 01:39:38;;;;;;;13.13;5.13;;;14.00;99.90;;;;;;4977111;28;20192;-89
2021/06/23 01:42:04;;;;;;;18.17;5.83;;;14.00;99.90;;;;;;4989563;28;20208;-88
2021/06/23 01:44:31;;;;;;;16.27;6.00;;;14.00;99.90;;;;;;4995859;28;20181;-88
2021/06/23 01:46:57;;;;;;;17.50;6.10;;;14.10;99.90;;;;;;4991245;28;20266;-87
2021/06/23 01:49:26;;;;;;;17.90;5.90;;;14.00;99.90;;;;;;4990407;28;20192;-87
2021/06/23 01:51:53;;;;;;;18.73;6.53;;;13.90;99.90;;;;;;4975611;28;20183;-88
2021/06/23 01:54:19;;;;;;;22.23;6.53;;;13.80;99.90;;;;;;4992177;28;20652;-89
2021/06/23 01:56:46;;;;;;;17.73;7.27;;;13.90;99.90;;;;;;4974403;28;20220;-89
2021/06/23 01:59:13;;;;;;;15.97;6.93;;;14.10;99.90;;;;;;4968619;28;20232;-90
2021/06/23 02:02:15;;;;;;;21.10;8.33;;;14.20;99.90;;;;;;4989743;28;20221;-89
2021/06/23 02:04:51;;;;;;;17.70;7.77;;;14.20;99.90;;;;;;4976096;28;20190;-89
2021/06/23 02:07:24;;;;;;;19.87;8.07;;;14.20;99.90;;;;;;4991725;28;20275;-88
2021/06/23 02:10:17;;;;;;;16.87;8.73;;;14.20;99.90;;;;;;4976332;28;20185;-89
2021/06/23 02:13:45;;;;;;;20.63;9.63;;;14.30;99.90;;;;;;4950037;28;20222;-87
2021/06/23 02:16:38;;;;;;;17.23;9.50;;;14.20;99.90;;;;;;4935033;29;20201;-89
2021/06/23 02:19:09;;;;;;;19.53;10.83;;;13.90;99.90;;;;;;4962993;28;20200;-86
2021/06/23 02:22:00;;;;;;;22.40;10.33;;;13.90;99.90;;;;;;4978548;28;20241;-88
2021/06/23 02:24:29;;;;;;;17.93;10.27;;;13.80;99.90;;;;;;4972977;28;20181;-88
2021/06/23 02:26:59;;;;;;;23.40;10.40;;;13.90;99.90;;;;;;4973803;28;20178;-86
2021/06/23 02:29:31;;;;;;;22.63;10.83;;;13.90;99.90;;;;;;4974636;28;20268;-88
2021/06/23 02:31:59;;;;;;;23.43;11.10;;;13.80;99.90;;;;;;4973066;28;20194;-88
2021/06/23 02:34:27;;;;;;;21.43;11.17;;;13.60;99.90;;;;;;4975480;28;20651;-86
2021/06/23 02:37:16;;;;;;;19.90;11.87;;;13.70;99.90;;;;;;4992091;28;20255;-88
2021/06/23 02:39:43;;;;;;;18.03;11.97;;;13.70;99.90;;;;;;4978972;28;20187;-88
2021/06/23 02:42:10;;;;;;;19.37;11.33;;;13.70;99.90;;;;;;4991529;28;20220;-89
2021/06/23 02:44:37;;;;;;;23.20;12.07;;;13.70;99.90;;;;;;4978303;28;20187;-89
2021/06/23 02:47:04;;;;;;;20.73;12.33;;;13.70;99.90;;;;;;4993235;28;20256;-89
2021/06/23 02:49:45;;;;;;;22.23;12.53;;;13.80;99.90;;;;;;4979041;28;20183;-88
2021/06/23 02:52:13;;;;;;;19.57;12.43;;;14.00;99.90;;;;;;4994787;28;20187;-89
2021/06/23 02:54:40;;;;;;;23.83;13.20;;;14.10;99.90;;;;;;4978366;28;20176;-89
2021/06/23 02:57:38;;;;;;;25.90;13.50;;;14.10;99.90;;;;;;4990957;28;20213;-87
2021/06/23 03:00:08;;;;;;;23.67;13.67;;;14.10;99.90;;;;;;4981269;28;20190;-89
2021/06/23 03:02:40;;;;;;;25.43;13.50;;;14.00;99.90;;;;;;4982052;28;20232;-89
2021/06/23 03:05:06;;;;;;;24.87;13.90;;;13.90;99.90;;;;;;4997209;28;20183;-90
2021/06/23 03:07:32;;;;;;;26.30;14.10;;;14.00;99.90;;;;;;4985343;28;20214;-87
2021/06/23 03:10:10;;;;;;;25.67;14.77;;;13.90;99.90;;;;;;4981906;28;20188;-89
2021/06/23 03:12:54;;;;;;;26.17;14.70;;;13.90;99.90;;;;;;5016429;28;20213;-88
2021/06/23 03:15:29;;;;;;;26.43;14.80;;;13.70;99.90;;;;;;4997758;28;20192;-90
2021/06/23 03:18:05;;;;;;;26.53;15.77;;;13.50;99.90;;;;;;5001690;28;20219;-88
2021/06/23 03:20:32;;;;;;;25.67;15.40;;;13.40;99.90;;;;;;4981822;28;20188;-88
2021/06/23 03:22:58;;;;;;;28.00;16.77;;;13.40;99.90;;;;;;5014592;28;20200;-89
2021/06/23 03:25:25;;;;;;;28.40;16.87;;;13.20;99.90;;;;;;4980872;28;20184;-88
2021/06/23 03:27:53;;;;;;;32.70;17.47;;;13.20;99.90;;;;;;4980605;28;20178;-87
2021/06/23 03:30:22;;;;;;;29.13;16.60;;;13.20;99.90;;;;;;4997188;28;20187;-88
2021/06/23 03:32:50;;;;;;;33.97;18.60;;;13.20;99.90;;;;;;4997072;28;20212;-89
2021/06/23 03:35:19;;;;;;;29.00;17.73;;;13.30;99.90;;;;;;4975868;28;20191;-88
2021/06/23 03:37:48;;;;;;;29.60;18.30;;;13.30;99.90;;;;;;4979943;28;20232;-91
2021/06/23 03:40:14;;;;;;;29.17;19.87;;;13.40;99.90;;;;;;5002577;28;20240;-89
2021/06/23 03:42:43;;;;;;;30.70;19.70;;;13.40;99.90;;;;;;5001360;28;20216;-91
2021/06/23 03:45:09;;;;;;;34.70;20.37;;;13.60;99.90;;;;;;4980409;28;20267;-88
2021/06/23 03:47:36;;;;;;;30.63;19.60;;;13.50;99.90;;;;;;5002888;28;20592;-89
2021/06/23 03:50:05;;;;;;;32.67;20.00;;;13.50;99.90;;;;;;4982177;28;20222;-86
2021/06/23 03:52:32;;;;;;;32.67;21.10;;;13.20;99.90;;;;;;4995757;28;20249;-88
2021/06/23 03:54:59;;;;;;;34.47;21.63;;;13.20;99.90;;;;;;4980287;28;20187;-89
2021/06/23 03:57:27;;;;;;;32.23;21.60;;;13.40;99.90;;;;;;4980259;28;20319;-89
2021/06/23 03:59:53;;;;;;;39.20;22.77;;;13.30;99.90;;;;;;4984210;28;20200;-87
2021/06/23 04:02:20;;;;;;;36.00;22.53;;;13.40;99.90;;;;;;4981251;28;20672;-88
2021/06/23 04:04:46;;;;;;;38.77;22.50;;;13.40;99.90;;;;;;4987116;28;20175;-88
2021/06/23 04:07:25;;;;;;;32.10;21.73;;;13.20;99.90;;;;;;4979569;28;20196;-89
2021/06/23 04:09:51;;;;;;;30.63;21.43;;;13.20;99.90;;;;;;5010561;28;20179;-88
2021/06/23 04:12:23;;;;;;;32.17;21.10;;;13.10;99.90;;;;;;4994589;28;20220;-87
2021/06/23 04:14:51;;;;;;;36.07;21.27;;;13.20;99.90;;;;;;4980316;28;20184;-89
2021/06/23 04:17:17;;;;;;;34.07;22.43;;;13.20;99.90;;;;;;4985291;28;20196;-89
2021/06/23 04:19:43;;;;;;;33.73;21.70;;;13.30;99.90;;;;;;4974925;28;20349;-89
2021/06/23 04:22:18;;;;;;;35.47;21.67;;;13.40;99.90;;;;;;4983724;28;20200;-88
2021/06/23 04:24:44;;;;;;;34.03;21.77;;;13.40;99.90;;;;;;4972277;28;20187;-87
2021/06/23 04:27:13;;;;;;;30.90;20.30;;;13.50;99.90;;;;;;4994491;28;20670;-89
2021/06/23 04:29:40;;;;;;;35.80;20.70;;;13.40;99.90;;;;;;4975310;28;20275;-86
2021/06/23 04:32:07;;;;;;;34.07;19.97;;;13.40;99.90;;;;;;4981329;28;20221;-88
2021/06/23 04:34:34;;;;;;;33.67;21.80;;;13.40;99.90;;;;;;4980533;28;20178;-88
2021/06/23 04:37:16;;;;;;;35.97;21.40;;;13.40;99.90;;;;;;4988242;28;20590;-88
2021/06/23 04:39:42;;;;;;;34.30;20.70;;;13.50;99.90;;;;;;4997934;28;20186;-90
2021/06/23 04:42:11;;;;;;;37.60;20.50;;;13.50;99.90;;;;;;5009097;28;20257;-89
2021/06/23 04:44:40;;;;;;;34.83;20.40;;;13.50;99.90;;;;;;5011023;28;20180;-89
2021/06/23 04:47:06;;;;;;;29.37;19.93;;;13.50;99.90;;;;;;4987529;28;20236;-87
2021/06/23 04:49:32;;;;;;;31.50;20.67;;;13.50;99.90;;;;;;4981384;28;20182;-91
2021/06/23 04:52:16;;;;;;;32.60;19.93;;;13.50;99.90;;;;;;4993221;28;20672;-88
2021/06/23 04:54:42;;;;;;;29.60;19.73;;;13.40;99.90;;;;;;4983692;28;20192;-89
2021/06/23 04:57:09;;;;;;;29.60;19.60;;;13.30;99.90;;;;;;5001459;28;20548;-91
2021/06/23 04:59:35;;;;;;;30.83;19.83;;;13.30;99.90;;;;;;4997062;28;20643;-89
2021/06/23 05:02:01;;;;;;;32.13;20.67;;;13.30;99.90;;;;;;4996939;28;20253;-91
2021/06/23 05:04:27;;;;;;;35.27;20.43;;;13.40;99.90;;;;;;4994312;28;20549;-89
2021/06/23 05:06:52;;;;;;;29.67;19.70;;;13.50;99.90;;;;;;4994591;28;20224;-90
2021/06/23 05:09:18;;;;;;;33.00;19.90;;;13.40;99.90;;;;;;4977109;28;20533;-90
2021/06/23 05:11:45;;;;;;;29.43;18.83;;;13.40;99.90;;;;;;4986650;28;20180;-89
2021/06/23 05:14:11;;;;;;;29.57;19.23;;;13.50;99.90;;;;;;4993997;28;20269;-89
2021/06/23 05:16:38;;;;;;;27.93;19.53;;;13.60;99.90;;;;;;4980364;28;20179;-90
2021/06/23 05:19:04;;;;;;;27.43;19.17;;;13.70;99.90;;;;;;4975410;28;20204;-87
2021/06/23 05:21:34;;;;;;;32.90;19.50;;;13.70;99.90;;;;;;4978747;28;20194;-87
2021/06/23 05:24:01;;;;;;;28.23;19.20;;;13.80;99.90;;;;;;5001188;28;20219;-88
2021/06/23 05:26:27;;;;;;;26.00;19.77;;;13.80;99.90;;;;;;4978002;28;20281;-89
2021/06/23 05:28:53;;;;;;;26.70;18.60;;;13.90;99.90;;;;;;4985520;28;20193;-90
2021/06/23 05:31:19;;;;;;;30.47;18.77;;;13.90;99.90;;;;;;4980528;28;20191;-88
2021/06/23 05:33:44;;;;;;;26.53;18.03;;;13.80;99.90;;;;;;4978832;28;20178;-89
2021/06/23 05:36:10;;;;;;;25.10;18.83;;;13.80;99.90;;;;;;4985223;28;20200;-88
2021/06/23 05:38:36;;;;;;;26.47;19.20;;;13.80;99.90;;;;;;4970532;28;20228;-88
2021/06/23 05:41:02;;;;;;;29.17;18.87;;;13.90;99.90;;;;;;4974651;28;20193;-86
2021/06/23 05:43:28;;;;;;;27.27;17.13;;;14.00;99.90;;;;;;4974057;28;20269;-90
2021/06/23 05:45:53;;;;;;;24.73;17.87;;;13.90;99.90;;;;;;4976053;28;20183;-89
2021/06/23 05:48:19;;;;;;;26.80;16.17;;;14.00;99.90;;;;;;4973878;28;20192;-90
2021/06/23 05:50:45;;;;;;;26.67;15.90;;;14.20;99.90;;;;;;4975754;28;20311;-88
2021/06/23 05:53:11;;;;;;;24.47;16.00;;;14.10;99.90;;;;;;4991916;28;20315;-87
2021/06/23 05:55:39;;;;;;;23.97;15.70;;;14.10;99.90;;;;;;4976875;28;20190;-87
2021/06/23 05:58:05;;;;;;;28.73;17.10;;;14.30;99.90;;;;;;4975606;28;20196;-89
2021/06/23 06:00:31;;;;;;;28.83;17.33;;;14.40;99.90;;;;;;4976752;28;20197;-90
2021/06/23 06:02:57;;;;;;;23.63;16.50;;;14.40;99.90;;;;;;4977027;28;20205;-89
2021/06/23 06:05:23;;;;;;;27.87;16.67;;;14.40;99.90;;;;;;4975727;28;20278;-90
2021/06/23 06:07:50;;;;;;;25.97;16.50;;;14.40;99.90;;;;;;4992364;28;20180;-87
2021/06/23 06:10:16;;;;;;;24.93;16.00;;;14.50;99.90;;;;;;4990815;28;20738;-85
2021/06/23 06:12:42;;;;;;;26.70;16.17;;;14.50;99.90;;;;;;4974106;28;20228;-90
2021/06/23 06:15:08;;;;;;;27.73;16.70;;;14.50;99.90;;;;;;4976081;28;20675;-89
2021/06/23 06:17:35;;;;;;;24.03;16.33;;;14.60;99.90;;;;;;4974099;28;20196;-88
2021/06/23 06:20:02;;;;;;;25.40;16.33;;;14.60;99.90;;;;;;4977339;28;20197;-88
2021/06/23 06:22:28;;;;;;;25.63;15.50;;;14.60;99.90;;;;;;4987722;28;20256;-89
2021/06/23 06:24:54;;;;;;;24.70;15.53;;;14.60;99.90;;;;;;4975538;28;20189;-89
2021/06/23 06:27:20;;;;;;;23.17;14.47;;;14.60;99.90;;;;;;4990419;28;20512;-89
2021/06/23 06:29:46;;;;;;;26.97;15.37;;;14.50;99.90;;;;;;4976420;28;20192;-89
2021/06/23 06:32:12;;;;;;;28.47;15.17;;;14.40;99.90;;;;;;4991591;28;20560;-88
2021/06/23 06:34:38;;;;;;;27.33;16.43;;;14.50;99.90;;;;;;4991111;28;20195;-91
2021/06/23 06:37:04;;;;;;;25.03;15.80;;;14.60;99.90;;;;;;4997053;28;20193;-89
2021/06/23 06:39:30;;;;;;;24.17;15.23;;;14.80;99.90;;;;;;4984141;28;20244;-90
2021/06/23 06:41:56;;;;;;;27.70;15.03;;;15.00;99.90;;;;;;4982370;28;20279;-87
2021/06/23 06:44:22;;;;;;;23.57;15.03;;;15.20;99.90;;;;;;4983024;28;20185;-89
2021/06/23 06:46:48;;;;;;;28.90;15.27;;;15.40;99.90;;;;;;4982427;28;20188;-87
2021/06/23 06:49:14;;;;;;;25.43;15.87;;;15.50;99.90;;;;;;5001295;28;20185;-88
2021/06/23 06:51:41;;;;;;;25.77;15.33;;;15.70;99.90;;;;;;4997956;28;20643;-88
2021/06/23 06:54:06;;;;;;;24.73;15.37;;;15.70;99.90;;;;;;4985535;28;20194;-90
2021/06/23 06:56:32;;;;;;;24.37;14.93;;;15.80;99.90;;;;;;5012489;28;20188;-88
2021/06/23 06:58:58;;;;;;;28.40;15.97;;;15.80;99.90;;;;;;5000199;28;20185;-88
2021/06/23 07:01:24;;;;;;;24.33;15.23;;;15.90;99.90;;;;;;4982813;28;20182;-88
2021/06/23 07:03:49;;;;;;;22.47;14.87;;;15.80;99.90;;;;;;4982501;28;20217;-88
2021/06/23 07:06:15;;;;;;;22.70;15.07;;;15.70;99.90;;;;;;4982920;28;20239;-87
2021/06/23 07:08:41;;;;;;;27.13;14.80;;;15.60;99.90;;;;;;4998582;28;20678;-89
2021/06/23 07:11:07;;;;;;;27.57;15.77;;;15.50;99.90;;;;;;4983766;28;20181;-89
2021/06/23 07:13:32;;;;;;;24.80;14.93;;;15.40;99.90;;;;;;4975927;28;20190;-89
2021/06/23 07:15:58;;;;;;;25.07;15.00;;;15.20;99.90;;;;;;4982126;28;20186;-86
2021/06/23 07:18:24;;;;;;;25.20;14.83;;;15.10;99.90;;;;;;4998761;28;20185;-88
2021/06/23 07:20:50;;;;;;;24.03;14.63;;;15.10;99.90;;;;;;4996804;28;20655;-86
2021/06/23 07:23:15;;;;;;;25.43;15.20;;;15.10;99.90;;;;;;4983269;28;20212;-88
2021/06/23 07:25:41;;;;;;;27.07;14.57;;;15.00;99.90;;;;;;4979678;28;20724;-89
2021/06/23 07:28:10;;;;;;;24.93;13.93;;;15.10;99.90;;;;;;4987561;28;20206;-88
2021/06/23 07:30:36;;;;;;;26.93;14.57;;;15.10;99.90;;;;;;4981415;28;20557;-89
2021/06/23 07:33:06;;;;;;;23.10;14.03;;;15.20;99.90;;;;;;4979867;28;20177;-89
2021/06/23 07:38:16;;;;;;;23.87;14.40;;;15.30;99.90;;;;;;4997141;28;20236;-88
2021/06/23 07:41:01;;;;;;;25.83;14.40;;;15.40;99.90;;;;;;4979914;28;20676;-89
2021/06/23 07:43:28;;;;;;;24.63;14.17;;;15.40;99.90;;;;;;4976566;28;20613;-89
2021/06/23 07:45:57;;;;;;;25.70;14.47;;;15.50;99.90;;;;;;4979921;28;20189;-88
2021/06/23 07:48:31;;;;;;;20.23;13.73;;;15.70;99.90;;;;;;4978468;28;20186;-90
2021/06/23 07:51:07;;;;;;;24.00;14.97;;;15.80;99.90;;;;;;4993667;28;20193;-90
2021/06/23 07:54:00;;;;;;;25.90;14.63;;;15.90;99.90;;;;;;4979416;28;20199;-90
2021/06/23 07:56:29;;;;;;;20.23;13.63;;;16.10;99.90;;;;;;4994036;28;20263;-90
2021/06/23 08:12:16;;;;;;;22.80;13.53;;;15.80;99.90;;;;;;4998727;28;20178;-88
2021/06/23 08:14:42;;;;;;;23.67;13.37;;;15.80;99.90;;;;;;4978364;28;20277;-89
2021/06/23 08:17:08;;;;;;;29.30;13.03;;;16.00;99.90;;;;;;4996442;28;20260;-90
2021/06/23 08:19:33;;;;;;;21.93;11.83;;;16.20;99.90;;;;;;4987496;28;20185;-88
2021/06/23 08:21:59;;;;;;;22.83;11.80;;;16.40;99.90;;;;;;4995785;28;20250;-86
2021/06/23 08:24:25;;;;;;;17.10;10.83;;;16.50;99.90;;;;;;4982247;28;20179;-89
2021/06/23 08:26:51;;;;;;;21.77;10.33;;;16.70;99.90;;;;;;4984141;28;20184;-89
2021/06/23 08:29:17;;;;;;;22.53;11.30;;;16.60;99.90;;;;;;4981095;28;20241;-91
2021/06/23 08:31:43;;;;;;;26.00;10.70;;;16.70;99.90;;;;;;4997145;28;20559;-90
2021/06/23 08:34:08;;;;;;;23.60;11.60;;;16.70;99.90;;;;;;4996911;28;20302;-89
2021/06/23 08:36:34;;;;;;;20.70;9.93;;;16.60;99.90;;;;;;4997887;28;20198;-90
2021/06/23 08:39:00;;;;;;;24.67;10.57;;;16.70;99.90;;;;;;4981014;28;20581;-89
2021/06/23 08:41:26;;;;;;;18.70;10.50;;;16.60;99.90;;;;;;4993203;28;20191;-88
2021/06/23 08:43:56;;;;;;;18.57;10.60;;;16.60;99.90;;;;;;5000081;28;20206;-89
2021/06/23 08:46:21;;;;;;;24.97;11.17;;;16.50;99.90;;;;;;4981035;28;20592;-89
2021/06/23 08:48:47;;;;;;;20.27;10.53;;;16.50;99.90;;;;;;4988663;28;20268;-88
2021/06/23 08:51:13;;;;;;;22.87;10.90;;;16.60;99.90;;;;;;4979821;28;20187;-89
2021/06/23 08:53:39;;;;;;;20.60;9.77;;;16.60;99.90;;;;;;4995781;28;20689;-90
2021/06/23 08:56:06;;;;;;;20.80;9.17;;;16.80;99.90;;;;;;4970880;28;20736;-89
2021/06/23 08:58:32;;;;;;;17.97;9.67;;;16.80;99.90;;;;;;4993429;28;20190;-88
2021/06/23 09:00:58;;;;;;;22.00;9.60;;;16.80;99.90;;;;;;4995827;28;20186;-88
2021/06/23 09:03:25;;;;;;;21.57;10.03;;;16.80;99.90;;;;;;4978755;28;20235;-88
2021/06/23 09:05:53;;;;;;;24.63;9.47;;;16.80;99.90;;;;;;4994938;28;20175;-88
2021/06/23 09:08:36;;;;;;;18.50;9.50;;;16.90;99.90;;;;;;4998606;28;20222;-89
2021/06/23 09:11:13;;;;;;;18.50;8.73;;;17.00;99.90;;;;;;4997240;28;20217;-89
2021/06/23 09:13:39;;;;;;;20.07;8.03;;;17.20;99.90;;;;;;4996412;28;20203;-88
2021/06/23 09:16:04;;;;;;;18.63;8.50;;;17.20;99.90;;;;;;4994248;28;20278;-89
2021/06/23 09:18:35;;;;;;;22.23;8.60;;;17.30;99.90;;;;;;4977556;28;20216;-89
2021/06/23 09:21:06;;;;;;;20.03;8.87;;;17.50;99.90;;;;;;4978397;28;20235;-89
2021/06/23 09:23:52;;;;;;;16.60;8.60;;;17.80;99.90;;;;;;4980881;28;20213;-88
2021/06/23 09:26:22;;;;;;;20.57;8.80;;;17.90;99.90;;;;;;4994841;28;20254;-88
2021/06/23 09:29:12;;;;;;;18.87;8.37;;;17.90;99.90;;;;;;4982826;28;20714;-88
2021/06/23 09:31:59;;;;;;;17.73;7.93;;;17.70;99.90;;;;;;4995038;28;20219;-89
2021/06/23 09:34:39;;;;;;;17.33;7.60;;;17.50;99.90;;;;;;4996552;28;20199;-88
2021/06/23 09:37:25;;;;;;;19.03;7.73;;;17.50;99.90;;;;;;4979184;28;20562;-91
2021/06/23 09:40:16;;;;;;;18.33;7.80;;;17.60;99.90;;;;;;4980056;28;20700;-91
2021/06/23 09:42:47;;;;;;;20.97;7.77;;;18.00;99.90;;;;;;4979564;28;20217;-90
2021/06/23 09:45:15;;;;;;;15.03;7.67;;;18.00;99.90;;;;;;4998118;28;20181;-89
2021/06/23 09:47:44;;;;;;;20.47;7.80;;;18.10;99.90;;;;;;4981742;28;20191;-88
2021/06/23 09:50:18;;;;;;;16.50;7.30;;;18.00;99.90;;;;;;4979567;28;20182;-89
2021/06/23 09:52:56;;;;;;;18.20;7.30;;;17.80;99.90;;;;;;4980790;28;20192;-88
2021/06/23 09:55:39;;;;;;;16.20;7.90;;;17.90;99.90;;;;;;4988351;28;20196;-90
2021/06/23 09:58:21;;;;;;;19.73;8.13;;;17.90;99.90;;;;;;4976980;28;20282;-88
2021/06/23 10:01:06;;;;;;;17.97;8.37;;;17.90;99.90;;;;;;4995544;28;20184;-87
2021/06/23 10:03:34;;;;;;;14.93;7.80;;;17.60;99.90;;;;;;4990167;28;20220;-90
2021/06/23 10:06:26;;;;;;;18.40;8.17;;;17.60;99.90;;;;;;4979135;28;20187;-88
2021/06/23 10:09:10;;;;;;;16.70;8.53;;;17.50;99.90;;;;;;4993648;28;20255;-87
2021/06/23 10:11:39;;;;;;;18.80;8.00;;;17.40;99.90;;;;;;4991590;28;20192;-89
2021/06/23 10:14:07;;;;;;;15.17;7.53;;;17.30;99.90;;;;;;5003012;28;20192;-90
2021/06/23 10:16:37;;;;;;;18.23;8.10;;;17.40;99.90;;;;;;4977702;28;20188;-88
2021/06/23 10:19:05;;;;;;;16.50;7.83;;;17.70;99.90;;;;;;4975740;28;20458;-88
2021/06/23 10:21:32;;;;;;;18.73;7.93;;;17.80;99.90;;;;;;4978716;28;20250;-90
2021/06/23 10:23:58;;;;;;;18.13;8.40;;;18.00;99.90;;;;;;4981514;28;20233;-88
2021/06/23 10:26:26;;;;;;;16.07;7.70;;;18.00;99.90;;;;;;4999741;28;20181;-89
2021/06/23 10:28:54;;;;;;;19.87;8.20;;;18.10;99.90;;;;;;4979814;28;20173;-87
2021/06/23 10:31:23;;;;;;;18.90;8.13;;;18.10;99.90;;;;;;4978379;28;20190;-89
2021/06/23 10:33:48;;;;;;;20.67;8.53;;;18.10;99.90;;;;;;4980035;28;20667;-89
2021/06/23 10:36:14;;;;;;;23.53;8.20;;;18.10;99.90;;;;;;4995359;28;20207;-88
2021/06/23 10:38:43;;;;;;;16.10;7.70;;;18.20;99.90;;;;;;4993806;28;20706;-89
2021/06/23 10:41:10;;;;;;;19.63;8.53;;;18.30;99.90;;;;;;4980762;28;20205;-88
2021/06/23 10:43:36;;;;;;;21.53;9.37;;;18.50;99.90;;;;;;4982245;28;20311;-88
2021/06/23 10:46:02;;;;;;;18.43;8.50;;;18.40;99.90;;;;;;4977215;28;20265;-86
2021/06/23 10:48:27;;;;;;;19.07;8.63;;;18.40;99.90;;;;;;4984269;28;20259;-90
2021/06/23 10:50:53;;;;;;;18.80;9.17;;;18.40;99.90;;;;;;4991197;28;20218;-90
2021/06/23 10:53:36;;;;;;;20.17;8.50;;;18.40;99.90;;;;;;4991173;28;20600;-91
2021/06/23 10:56:04;;;;;;;18.33;7.80;;;18.40;99.90;;;;;;4992013;28;20193;-88
2021/06/23 10:58:33;;;;;;;23.03;8.53;;;18.40;99.90;;;;;;4995400;28;20185;-89
2021/06/23 11:01:10;;;;;;;15.17;8.80;;;18.50;99.90;;;;;;4993590;28;20193;-90
2021/06/23 11:03:59;;;;;;;18.17;8.97;;;18.60;99.90;;;;;;4996128;28;20288;-90
2021/06/23 11:06:45;;;;;;;18.23;9.30;;;18.80;99.90;;;;;;4980189;28;20511;-88
2021/06/23 11:09:27;;;;;;;18.67;10.07;;;19.00;99.90;;;;;;5003024;28;20193;-89
2021/06/23 11:11:54;;;;;;;23.50;10.03;;;19.10;99.90;;;;;;4984564;28;20247;-91
2021/06/23 11:14:23;;;;;;;21.20;9.37;;;19.20;99.90;;;;;;4981296;28;20208;-89
2021/06/23 11:16:50;;;;;;;18.37;9.17;;;19.30;99.90;;;;;;4991076;28;20240;-90
2021/06/23 11:19:17;;;;;;;20.30;9.20;;;19.30;99.90;;;;;;4994401;28;20184;-90
2021/06/23 11:21:46;;;;;;;18.33;8.53;;;19.40;99.90;;;;;;4984508;28;20196;-90
2021/06/23 11:24:20;;;;;;;18.60;8.00;;;19.40;99.90;;;;;;4985971;28;20213;-89
2021/06/23 11:26:48;;;;;;;19.77;8.67;;;19.20;99.90;;;;;;5002896;28;20189;-90
2021/06/23 11:29:20;;;;;;;21.70;8.67;;;19.20;99.90;;;;;;5009976;28;20928;-92
2021/06/23 11:31:53;;;;;;;17.70;8.30;;;19.40;99.90;;;;;;4984694;28;20182;-91
2021/06/23 11:34:37;;;;;;;16.73;8.47;;;19.60;99.90;;;;;;4984184;28;20182;-88
2021/06/23 11:37:05;;;;;;;20.47;9.17;;;19.90;99.90;;;;;;4999357;28;20466;-91
2021/06/23 11:39:31;;;;;;;19.27;9.13;;;20.20;99.90;;;;;;4983097;28;20320;-90
2021/06/23 11:41:57;;;;;;;20.57;8.97;;;20.60;99.90;;;;;;4998869;28;20194;-89
2021/06/23 11:44:23;;;;;;;20.77;10.00;;;20.50;99.90;;;;;;4989632;28;20221;-89
2021/06/23 11:46:49;;;;;;;16.60;9.37;;;20.40;99.90;;;;;;4996025;28;20191;-91
2021/06/23 11:49:14;;;;;;;24.53;10.23;;;20.40;99.90;;;;;;4983438;28;20235;-92
2021/06/23 11:51:42;;;;;;;21.37;10.73;;;20.20;99.90;;;;;;4995497;28;20184;-92
2021/06/23 11:54:08;;;;;;;18.97;10.57;;;20.10;99.90;;;;;;4981042;28;20179;-91
2021/06/23 11:56:34;;;;;;;20.97;9.93;;;20.20;99.90;;;;;;4983758;28;20212;-88
2021/06/23 11:59:00;;;;;;;18.97;10.23;;;20.10;99.90;;;;;;4981566;28;20196;-91
2021/06/23 12:01:25;;;;;;;20.07;11.13;;;20.10;99.90;;;;;;5002942;28;20272;-89
2021/06/23 12:03:54;;;;;;;21.60;11.53;;;20.20;99.90;;;;;;4982718;28;20578;-89
2021/06/23 12:06:20;;;;;;;16.83;10.67;;;20.30;99.90;;;;;;4982215;28;20177;-89
2021/06/23 12:08:45;;;;;;;18.77;11.20;;;20.20;99.90;;;;;;4983431;28;20182;-90
2021/06/23 12:11:11;;;;;;;19.60;11.37;;;20.20;99.90;;;;;;4982085;28;20277;-90
2021/06/23 12:13:37;;;;;;;20.63;12.07;;;20.20;99.90;;;;;;4988435;28;20180;-91
2021/06/23 12:16:03;;;;;;;22.67;11.93;;;20.10;99.90;;;;;;4979596;28;20197;-90
2021/06/23 12:18:29;;;;;;;21.20;12.80;;;20.30;99.90;;;;;;4985451;28;20647;-90
2021/06/23 12:20:55;;;;;;;21.23;11.03;;;20.30;99.90;;;;;;4980751;28;20194;-89
2021/06/23 12:23:20;;;;;;;20.60;11.57;;;20.40;99.90;;;;;;4983924;28;20221;-89
2021/06/23 12:25:49;;;;;;;21.00;12.03;;;20.50;99.90;;;;;;4980732;28;20223;-90
2021/06/23 12:28:15;;;;;;;19.27;13.67;;;20.30;99.90;;;;;;4980305;28;20230;-89
2021/06/23 12:30:43;;;;;;;21.43;13.77;;;20.10;99.90;;;;;;4985191;28;20174;-90
2021/06/23 12:33:11;;;;;;;23.00;13.37;;;20.00;99.90;;;;;;4983088;28;20193;-91
2021/06/23 12:35:45;;;;;;;25.60;13.80;;;20.20;99.90;;;;;;4985988;28;20695;-89
2021/06/23 12:38:14;;;;;;;18.03;12.07;;;20.30;99.90;;;;;;4980847;28;20309;-91
2021/06/23 12:40:41;;;;;;;20.63;12.07;;;20.30;99.90;;;;;;4999782;28;20192;-90
2021/06/23 12:43:10;;;;;;;22.33;12.47;;;20.20;99.90;;;;;;4981872;28;21010;-90
2021/06/23 12:45:36;;;;;;;22.73;13.37;;;20.20;99.90;;;;;;4982595;28;20178;-88
2021/06/23 12:48:06;;;;;;;21.93;13.23;;;20.10;99.90;;;;;;4981219;28;20200;-91
2021/06/23 12:50:33;;;;;;;22.83;12.50;;;20.10;99.90;;;;;;4982265;28;20704;-91
2021/06/23 12:52:58;;;;;;;18.27;12.57;;;20.10;99.90;;;;;;4986375;28;20203;-91
2021/06/23 12:55:24;;;;;;;22.57;11.83;;;20.30;99.90;;;;;;4980323;28;20190;-92
2021/06/23 12:57:50;;;;;;;20.83;12.07;;;20.50;99.90;;;;;;4980527;28;20627;-90